CheckWX is a tool to help pilots better visualize weather data.  It is not intended as a substitute for an official pre-flight weather briefing.

09:14:00 UTC

KBUY METAR
Burlington-Alamance Regional Airport
Burlington, North Carolina, USA
Current

20 mins ago

KBUY 070854Z AUTO 00000KT 5SM BR CLR 21/19 A3006 RMK AO2 SLP171 T02110194 56009
Observed
Jul-7 @ 08:54 UTC
Visibility
5 SM
Flight Rules
MVFR
Conditions
Mist
Cloud Levels
  • Clear skies
Temperature
21°C / 70°F
Dewpoint
19°C / 66°F
Humidity
88%
Altimeter
30.06" Hg
Pressure
1017.92 hPa
Previous

1 hour ago

KBUY 070754Z AUTO 00000KT 6SM BR CLR 22/20 A3007 RMK AO2 SLP173 T02170200
Observed
Jul-7 @ 07:54 UTC
Visibility
6 SM
Flight Rules
VFR
Conditions
Mist
Cloud Levels
  • Clear skies
Temperature
22°C / 72°F
Dewpoint
20°C / 68°F
Humidity
88%
Altimeter
30.07" Hg
Pressure
1018.32 hPa
Previous

2 hours ago

KBUY 070654Z AUTO 00000KT 8SM CLR 22/21 A3007 RMK AO2 SLP174 T02220206
Observed
Jul-7 @ 06:54 UTC
Visibility
8 SM
Flight Rules
VFR
Cloud Levels
  • Clear skies
Temperature
22°C / 72°F
Dewpoint
21°C / 70°F
Humidity
94%
Altimeter
30.07" Hg
Pressure
1018.32 hPa